sensor_id;sensor_type;location;lat;lon;timestamp;P1;durP1;ratioP1;P2;durP2;ratioP2
83055;SDS011;72881;43.514;1.510;2024-01-10T00:00:13;12.52;;;7.78;;
83055;SDS011;72881;43.514;1.510;2024-01-10T00:02:39;12.32;;;8.18;;
83055;SDS011;72881;43.514;1.510;2024-01-10T00:05:05;12.50;;;7.75;;
83055;SDS011;72881;43.514;1.510;2024-01-10T00:07:31;11.43;;;7.75;;
83055;SDS011;72881;43.514;1.510;2024-01-10T00:09:57;11.63;;;8.05;;
83055;SDS011;72881;43.514;1.510;2024-01-10T00:12:24;12.05;;;7.20;;
83055;SDS011;72881;43.514;1.510;2024-01-10T00:14:50;11.18;;;7.75;;
83055;SDS011;72881;43.514;1.510;2024-01-10T00:17:15;12.48;;;8.00;;
83055;SDS011;72881;43.514;1.510;2024-01-10T00:19:41;12.05;;;7.90;;
83055;SDS011;72881;43.514;1.510;2024-01-10T00:22:06;12.07;;;7.50;;
83055;SDS011;72881;43.514;1.510;2024-01-10T00:24:32;11.38;;;7.47;;
83055;SDS011;72881;43.514;1.510;2024-01-10T00:26:57;11.95;;;8.00;;
83055;SDS011;72881;43.514;1.510;2024-01-10T00:29:22;11.68;;;7.97;;
83055;SDS011;72881;43.514;1.510;2024-01-10T00:31:48;13.48;;;8.02;;
83055;SDS011;72881;43.514;1.510;2024-01-10T00:34:13;10.77;;;7.63;;
83055;SDS011;72881;43.514;1.510;2024-01-10T00:36:39;11.63;;;7.75;;
83055;SDS011;72881;43.514;1.510;2024-01-10T00:39:04;10.57;;;7.30;;
83055;SDS011;72881;43.514;1.510;2024-01-10T00:41:30;12.15;;;7.45;;
83055;SDS011;72881;43.514;1.510;2024-01-10T00:43:55;12.18;;;7.57;;
83055;SDS011;72881;43.514;1.510;2024-01-10T00:46:20;11.35;;;7.25;;
83055;SDS011;72881;43.514;1.510;2024-01-10T00:48:46;11.77;;;7.68;;
83055;SDS011;72881;43.514;1.510;2024-01-10T00:51:11;11.05;;;7.43;;
83055;SDS011;72881;43.514;1.510;2024-01-10T00:53:37;11.45;;;7.55;;
83055;SDS011;72881;43.514;1.510;2024-01-10T00:56:05;12.15;;;7.78;;
83055;SDS011;72881;43.514;1.510;2024-01-10T00:58:31;11.02;;;7.10;;
83055;SDS011;72881;43.514;1.510;2024-01-10T01:00:57;10.75;;;7.43;;
83055;SDS011;72881;43.514;1.510;2024-01-10T01:03:22;11.90;;;8.13;;
83055;SDS011;72881;43.514;1.510;2024-01-10T01:05:47;12.25;;;7.80;;
83055;SDS011;72881;43.514;1.510;2024-01-10T01:08:13;9.60;;;6.65;;
83055;SDS011;72881;43.514;1.510;2024-01-10T01:10:38;9.38;;;6.78;;
83055;SDS011;72881;43.514;1.510;2024-01-10T01:13:04;9.70;;;7.28;;
83055;SDS011;72881;43.514;1.510;2024-01-10T01:15:29;10.75;;;7.05;;
83055;SDS011;72881;43.514;1.510;2024-01-10T01:17:54;11.05;;;7.10;;
83055;SDS011;72881;43.514;1.510;2024-01-10T01:20:20;9.45;;;6.88;;
83055;SDS011;72881;43.514;1.510;2024-01-10T01:22:45;10.55;;;7.55;;
83055;SDS011;72881;43.514;1.510;2024-01-10T01:25:11;10.95;;;7.35;;
83055;SDS011;72881;43.514;1.510;2024-01-10T01:27:36;11.20;;;7.00;;
83055;SDS011;72881;43.514;1.510;2024-01-10T01:30:02;10.32;;;7.20;;
83055;SDS011;72881;43.514;1.510;2024-01-10T01:32:28;12.38;;;7.82;;
83055;SDS011;72881;43.514;1.510;2024-01-10T01:34:53;9.43;;;6.57;;
83055;SDS011;72881;43.514;1.510;2024-01-10T01:37:19;9.95;;;6.95;;
83055;SDS011;72881;43.514;1.510;2024-01-10T01:39:44;10.77;;;6.95;;
83055;SDS011;72881;43.514;1.510;2024-01-10T01:42:10;9.38;;;6.90;;
83055;SDS011;72881;43.514;1.510;2024-01-10T01:44:35;10.07;;;6.70;;
83055;SDS011;72881;43.514;1.510;2024-01-10T01:47:01;10.98;;;7.03;;
83055;SDS011;72881;43.514;1.510;2024-01-10T01:49:26;9.43;;;6.65;;
83055;SDS011;72881;43.514;1.510;2024-01-10T01:51:52;9.20;;;6.43;;
83055;SDS011;72881;43.514;1.510;2024-01-10T01:54:17;10.13;;;6.70;;
83055;SDS011;72881;43.514;1.510;2024-01-10T01:56:44;8.95;;;6.13;;
83055;SDS011;72881;43.514;1.510;2024-01-10T01:59:10;9.77;;;6.25;;
83055;SDS011;72881;43.514;1.510;2024-01-10T02:01:36;9.60;;;6.65;;
83055;SDS011;72881;43.514;1.510;2024-01-10T02:04:01;10.80;;;6.57;;
83055;SDS011;72881;43.514;1.510;2024-01-10T02:06:28;9.68;;;6.68;;
83055;SDS011;72881;43.514;1.510;2024-01-10T02:08:56;11.02;;;6.35;;
83055;SDS011;72881;43.514;1.510;2024-01-10T02:11:22;10.52;;;6.95;;
83055;SDS011;72881;43.514;1.510;2024-01-10T02:13:49;10.60;;;6.85;;
83055;SDS011;72881;43.514;1.510;2024-01-10T02:16:14;9.75;;;6.85;;
83055;SDS011;72881;43.514;1.510;2024-01-10T02:18:40;10.10;;;6.95;;
83055;SDS011;72881;43.514;1.510;2024-01-10T02:21:05;9.40;;;6.22;;
83055;SDS011;72881;43.514;1.510;2024-01-10T02:23:30;10.98;;;7.15;;
83055;SDS011;72881;43.514;1.510;2024-01-10T02:25:56;10.02;;;6.25;;
83055;SDS011;72881;43.514;1.510;2024-01-10T02:28:21;10.52;;;6.82;;
83055;SDS011;72881;43.514;1.510;2024-01-10T02:30:48;10.00;;;6.47;;
83055;SDS011;72881;43.514;1.510;2024-01-10T02:33:15;10.73;;;6.82;;
83055;SDS011;72881;43.514;1.510;2024-01-10T02:35:41;10.82;;;6.85;;
83055;SDS011;72881;43.514;1.510;2024-01-10T02:38:06;10.55;;;6.75;;
83055;SDS011;72881;43.514;1.510;2024-01-10T02:40:31;10.35;;;6.78;;
83055;SDS011;72881;43.514;1.510;2024-01-10T02:42:57;9.80;;;6.55;;
83055;SDS011;72881;43.514;1.510;2024-01-10T02:45:22;9.82;;;6.45;;
83055;SDS011;72881;43.514;1.510;2024-01-10T02:47:48;11.18;;;6.68;;
83055;SDS011;72881;43.514;1.510;2024-01-10T02:50:13;10.35;;;6.80;;
83055;SDS011;72881;43.514;1.510;2024-01-10T02:52:39;10.10;;;6.53;;
83055;SDS011;72881;43.514;1.510;2024-01-10T02:55:04;10.60;;;6.75;;
83055;SDS011;72881;43.514;1.510;2024-01-10T02:57:30;11.15;;;6.88;;
83055;SDS011;72881;43.514;1.510;2024-01-10T02:59:55;9.95;;;6.43;;
83055;SDS011;72881;43.514;1.510;2024-01-10T03:02:21;8.85;;;6.20;;
83055;SDS011;72881;43.514;1.510;2024-01-10T03:04:48;9.30;;;6.28;;
83055;SDS011;72881;43.514;1.510;2024-01-10T03:07:14;10.30;;;7.13;;
83055;SDS011;72881;43.514;1.510;2024-01-10T03:09:39;9.85;;;6.32;;
83055;SDS011;72881;43.514;1.510;2024-01-10T03:12:05;9.63;;;6.60;;
83055;SDS011;72881;43.514;1.510;2024-01-10T03:14:30;8.73;;;6.18;;
83055;SDS011;72881;43.514;1.510;2024-01-10T03:16:56;10.40;;;6.28;;
83055;SDS011;72881;43.514;1.510;2024-01-10T03:19:21;10.52;;;7.03;;
83055;SDS011;72881;43.514;1.510;2024-01-10T03:21:46;10.88;;;6.82;;
83055;SDS011;72881;43.514;1.510;2024-01-10T03:24:12;10.95;;;6.75;;
83055;SDS011;72881;43.514;1.510;2024-01-10T03:26:37;10.05;;;6.50;;
83055;SDS011;72881;43.514;1.510;2024-01-10T03:29:03;9.63;;;6.45;;
83055;SDS011;72881;43.514;1.510;2024-01-10T03:31:28;11.05;;;6.90;;
83055;SDS011;72881;43.514;1.510;2024-01-10T03:33:55;11.52;;;7.03;;
83055;SDS011;72881;43.514;1.510;2024-01-10T03:36:21;10.38;;;6.95;;
83055;SDS011;72881;43.514;1.510;2024-01-10T03:38:47;11.57;;;7.05;;
83055;SDS011;72881;43.514;1.510;2024-01-10T03:41:13;9.82;;;6.50;;
83055;SDS011;72881;43.514;1.510;2024-01-10T03:43:41;11.52;;;6.57;;
83055;SDS011;72881;43.514;1.510;2024-01-10T03:46:07;10.38;;;6.82;;
83055;SDS011;72881;43.514;1.510;2024-01-10T03:48:33;10.57;;;7.00;;
83055;SDS011;72881;43.514;1.510;2024-01-10T03:50:58;9.73;;;6.38;;
83055;SDS011;72881;43.514;1.510;2024-01-10T03:53:24;10.25;;;6.63;;
83055;SDS011;72881;43.514;1.510;2024-01-10T03:55:49;8.98;;;6.53;;
83055;SDS011;72881;43.514;1.510;2024-01-10T03:58:14;10.43;;;6.78;;
83055;SDS011;72881;43.514;1.510;2024-01-10T04:00:40;9.45;;;6.38;;
83055;SDS011;72881;43.514;1.510;2024-01-10T04:03:05;9.20;;;6.20;;
83055;SDS011;72881;43.514;1.510;2024-01-10T04:05:30;10.05;;;6.55;;
83055;SDS011;72881;43.514;1.510;2024-01-10T04:07:56;9.95;;;6.40;;
83055;SDS011;72881;43.514;1.510;2024-01-10T04:10:22;8.55;;;6.32;;
83055;SDS011;72881;43.514;1.510;2024-01-10T04:12:47;9.02;;;6.45;;
83055;SDS011;72881;43.514;1.510;2024-01-10T04:15:13;10.65;;;6.55;;
83055;SDS011;72881;43.514;1.510;2024-01-10T04:17:38;10.10;;;6.20;;
83055;SDS011;72881;43.514;1.510;2024-01-10T04:20:04;9.27;;;6.30;;
83055;SDS011;72881;43.514;1.510;2024-01-10T04:22:30;11.77;;;6.38;;
83055;SDS011;72881;43.514;1.510;2024-01-10T04:24:59;9.55;;;6.47;;
83055;SDS011;72881;43.514;1.510;2024-01-10T04:27:25;9.70;;;6.20;;
83055;SDS011;72881;43.514;1.510;2024-01-10T04:29:51;9.93;;;6.20;;
83055;SDS011;72881;43.514;1.510;2024-01-10T04:32:16;10.43;;;6.72;;
83055;SDS011;72881;43.514;1.510;2024-01-10T04:34:42;9.73;;;6.50;;
83055;SDS011;72881;43.514;1.510;2024-01-10T04:37:07;10.43;;;6.43;;
83055;SDS011;72881;43.514;1.510;2024-01-10T04:39:36;9.80;;;6.40;;
83055;SDS011;72881;43.514;1.510;2024-01-10T04:42:03;9.07;;;5.97;;
83055;SDS011;72881;43.514;1.510;2024-01-10T04:44:29;8.20;;;5.47;;
83055;SDS011;72881;43.514;1.510;2024-01-10T04:46:54;9.63;;;6.53;;
83055;SDS011;72881;43.514;1.510;2024-01-10T04:49:20;9.70;;;6.00;;
83055;SDS011;72881;43.514;1.510;2024-01-10T04:51:45;8.48;;;5.97;;
83055;SDS011;72881;43.514;1.510;2024-01-10T04:54:11;9.02;;;6.03;;
83055;SDS011;72881;43.514;1.510;2024-01-10T04:56:36;8.43;;;5.35;;
83055;SDS011;72881;43.514;1.510;2024-01-10T04:59:02;8.90;;;5.53;;
83055;SDS011;72881;43.514;1.510;2024-01-10T05:01:28;9.15;;;5.95;;
83055;SDS011;72881;43.514;1.510;2024-01-10T05:03:53;9.43;;;6.18;;
83055;SDS011;72881;43.514;1.510;2024-01-10T05:06:19;8.02;;;5.70;;
83055;SDS011;72881;43.514;1.510;2024-01-10T05:08:44;9.90;;;5.47;;
83055;SDS011;72881;43.514;1.510;2024-01-10T05:11:10;8.70;;;6.15;;
83055;SDS011;72881;43.514;1.510;2024-01-10T05:13:35;8.25;;;6.13;;
83055;SDS011;72881;43.514;1.510;2024-01-10T05:16:01;9.52;;;6.18;;
83055;SDS011;72881;43.514;1.510;2024-01-10T05:18:26;8.27;;;5.57;;
83055;SDS011;72881;43.514;1.510;2024-01-10T05:20:52;9.93;;;5.90;;
83055;SDS011;72881;43.514;1.510;2024-01-10T05:23:17;9.10;;;5.90;;
83055;SDS011;72881;43.514;1.510;2024-01-10T05:25:42;8.60;;;5.50;;
83055;SDS011;72881;43.514;1.510;2024-01-10T05:28:08;8.40;;;5.88;;
83055;SDS011;72881;43.514;1.510;2024-01-10T05:30:33;8.35;;;5.80;;
83055;SDS011;72881;43.514;1.510;2024-01-10T05:32:59;8.77;;;5.68;;
83055;SDS011;72881;43.514;1.510;2024-01-10T05:35:24;9.73;;;5.78;;
83055;SDS011;72881;43.514;1.510;2024-01-10T05:37:51;7.53;;;5.78;;
83055;SDS011;72881;43.514;1.510;2024-01-10T05:40:17;10.23;;;6.00;;
83055;SDS011;72881;43.514;1.510;2024-01-10T05:42:43;9.15;;;5.82;;
83055;SDS011;72881;43.514;1.510;2024-01-10T05:45:09;9.80;;;5.97;;
83055;SDS011;72881;43.514;1.510;2024-01-10T05:47:34;8.65;;;6.05;;
83055;SDS011;72881;43.514;1.510;2024-01-10T05:50:00;9.05;;;5.35;;
83055;SDS011;72881;43.514;1.510;2024-01-10T05:52:26;8.48;;;5.72;;
83055;SDS011;72881;43.514;1.510;2024-01-10T05:54:51;9.00;;;5.63;;
83055;SDS011;72881;43.514;1.510;2024-01-10T05:57:18;8.18;;;5.22;;
83055;SDS011;72881;43.514;1.510;2024-01-10T05:59:43;10.02;;;5.60;;
83055;SDS011;72881;43.514;1.510;2024-01-10T06:02:09;9.18;;;5.95;;
83055;SDS011;72881;43.514;1.510;2024-01-10T06:04:34;8.70;;;5.55;;
83055;SDS011;72881;43.514;1.510;2024-01-10T06:07:00;8.30;;;5.60;;
83055;SDS011;72881;43.514;1.510;2024-01-10T06:09:25;7.50;;;5.22;;
83055;SDS011;72881;43.514;1.510;2024-01-10T06:11:51;8.13;;;5.35;;
83055;SDS011;72881;43.514;1.510;2024-01-10T06:14:16;9.80;;;5.60;;
83055;SDS011;72881;43.514;1.510;2024-01-10T06:16:42;7.63;;;5.13;;
83055;SDS011;72881;43.514;1.510;2024-01-10T06:19:08;8.30;;;5.43;;
83055;SDS011;72881;43.514;1.510;2024-01-10T06:21:35;8.23;;;5.30;;
83055;SDS011;72881;43.514;1.510;2024-01-10T06:24:00;8.02;;;5.35;;
83055;SDS011;72881;43.514;1.510;2024-01-10T06:26:26;7.93;;;5.28;;
83055;SDS011;72881;43.514;1.510;2024-01-10T06:28:51;7.57;;;5.22;;
83055;SDS011;72881;43.514;1.510;2024-01-10T06:31:17;7.47;;;4.78;;
83055;SDS011;72881;43.514;1.510;2024-01-10T06:33:42;7.97;;;4.55;;
83055;SDS011;72881;43.514;1.510;2024-01-10T06:36:07;7.05;;;4.90;;
83055;SDS011;72881;43.514;1.510;2024-01-10T06:38:33;7.32;;;5.03;;
83055;SDS011;72881;43.514;1.510;2024-01-10T06:40:58;7.75;;;5.05;;
83055;SDS011;72881;43.514;1.510;2024-01-10T06:43:24;7.63;;;4.60;;
83055;SDS011;72881;43.514;1.510;2024-01-10T06:45:49;7.97;;;5.15;;
83055;SDS011;72881;43.514;1.510;2024-01-10T06:48:15;6.78;;;4.68;;
83055;SDS011;72881;43.514;1.510;2024-01-10T06:50:40;7.38;;;4.90;;
83055;SDS011;72881;43.514;1.510;2024-01-10T06:53:06;7.50;;;4.85;;
83055;SDS011;72881;43.514;1.510;2024-01-10T06:55:31;7.15;;;4.53;;
83055;SDS011;72881;43.514;1.510;2024-01-10T06:57:57;8.30;;;4.22;;
83055;SDS011;72881;43.514;1.510;2024-01-10T07:00:22;6.53;;;4.40;;
83055;SDS011;72881;43.514;1.510;2024-01-10T07:02:48;7.22;;;4.78;;
83055;SDS011;72881;43.514;1.510;2024-01-10T07:05:14;6.32;;;4.50;;
83055;SDS011;72881;43.514;1.510;2024-01-10T07:07:40;6.07;;;4.10;;
83055;SDS011;72881;43.514;1.510;2024-01-10T07:10:06;6.95;;;4.55;;
83055;SDS011;72881;43.514;1.510;2024-01-10T07:12:32;6.07;;;4.20;;
83055;SDS011;72881;43.514;1.510;2024-01-10T07:14:58;6.93;;;4.75;;
83055;SDS011;72881;43.514;1.510;2024-01-10T07:17:23;6.85;;;4.60;;
83055;SDS011;72881;43.514;1.510;2024-01-10T07:19:49;7.43;;;4.45;;
83055;SDS011;72881;43.514;1.510;2024-01-10T07:22:15;5.70;;;3.75;;
83055;SDS011;72881;43.514;1.510;2024-01-10T07:24:40;7.43;;;4.50;;
83055;SDS011;72881;43.514;1.510;2024-01-10T07:27:06;6.15;;;4.00;;
83055;SDS011;72881;43.514;1.510;2024-01-10T07:29:34;7.63;;;4.07;;
83055;SDS011;72881;43.514;1.510;2024-01-10T07:32:00;7.22;;;3.90;;
83055;SDS011;72881;43.514;1.510;2024-01-10T07:34:25;6.65;;;4.05;;
83055;SDS011;72881;43.514;1.510;2024-01-10T07:36:50;5.82;;;3.90;;
83055;SDS011;72881;43.514;1.510;2024-01-10T07:39:17;6.03;;;3.83;;
83055;SDS011;72881;43.514;1.510;2024-01-10T07:41:45;7.60;;;5.03;;
83055;SDS011;72881;43.514;1.510;2024-01-10T07:44:11;11.98;;;4.72;;
83055;SDS011;72881;43.514;1.510;2024-01-10T07:46:37;7.15;;;4.57;;
83055;SDS011;72881;43.514;1.510;2024-01-10T07:49:06;7.97;;;5.20;;
83055;SDS011;72881;43.514;1.510;2024-01-10T07:51:31;7.15;;;4.43;;
83055;SDS011;72881;43.514;1.510;2024-01-10T07:53:57;6.95;;;4.40;;
83055;SDS011;72881;43.514;1.510;2024-01-10T07:56:24;5.93;;;4.30;;
83055;SDS011;72881;43.514;1.510;2024-01-10T07:58:50;6.05;;;4.32;;
83055;SDS011;72881;43.514;1.510;2024-01-10T08:01:17;7.65;;;4.45;;
83055;SDS011;72881;43.514;1.510;2024-01-10T08:03:42;6.43;;;3.95;;
83055;SDS011;72881;43.514;1.510;2024-01-10T08:06:08;5.75;;;3.83;;
83055;SDS011;72881;43.514;1.510;2024-01-10T08:08:35;6.35;;;3.90;;
83055;SDS011;72881;43.514;1.510;2024-01-10T08:11:01;5.97;;;4.25;;
83055;SDS011;72881;43.514;1.510;2024-01-10T08:13:27;5.82;;;3.88;;
83055;SDS011;72881;43.514;1.510;2024-01-10T08:15:52;6.53;;;4.25;;
83055;SDS011;72881;43.514;1.510;2024-01-10T08:18:18;7.45;;;4.22;;
83055;SDS011;72881;43.514;1.510;2024-01-10T08:20:44;7.22;;;4.10;;
83055;SDS011;72881;43.514;1.510;2024-01-10T08:23:09;5.20;;;3.83;;
83055;SDS011;72881;43.514;1.510;2024-01-10T08:25:34;6.60;;;3.83;;
83055;SDS011;72881;43.514;1.510;2024-01-10T08:28:00;5.53;;;3.67;;
83055;SDS011;72881;43.514;1.510;2024-01-10T08:30:26;6.07;;;4.10;;
83055;SDS011;72881;43.514;1.510;2024-01-10T08:32:51;7.32;;;4.78;;
83055;SDS011;72881;43.514;1.510;2024-01-10T08:35:17;7.35;;;4.40;;
83055;SDS011;72881;43.514;1.510;2024-01-10T08:37:44;6.82;;;4.32;;
83055;SDS011;72881;43.514;1.510;2024-01-10T08:40:12;8.85;;;4.32;;
83055;SDS011;72881;43.514;1.510;2024-01-10T08:42:43;12.02;;;4.55;;
83055;SDS011;72881;43.514;1.510;2024-01-10T08:45:09;9.98;;;4.80;;
83055;SDS011;72881;43.514;1.510;2024-01-10T08:47:36;13.35;;;4.63;;
83055;SDS011;72881;43.514;1.510;2024-01-10T08:50:02;10.68;;;5.10;;
83055;SDS011;72881;43.514;1.510;2024-01-10T08:52:30;11.82;;;4.88;;
83055;SDS011;72881;43.514;1.510;2024-01-10T08:54:56;9.07;;;4.82;;
83055;SDS011;72881;43.514;1.510;2024-01-10T08:57:21;8.85;;;4.75;;
83055;SDS011;72881;43.514;1.510;2024-01-10T08:59:46;9.95;;;5.03;;
83055;SDS011;72881;43.514;1.510;2024-01-10T09:02:12;7.93;;;4.78;;
83055;SDS011;72881;43.514;1.510;2024-01-10T09:04:37;12.15;;;5.05;;
83055;SDS011;72881;43.514;1.510;2024-01-10T09:07:03;13.45;;;5.30;;
83055;SDS011;72881;43.514;1.510;2024-01-10T09:09:28;8.38;;;5.20;;
83055;SDS011;72881;43.514;1.510;2024-01-10T09:11:54;9.82;;;4.82;;
83055;SDS011;72881;43.514;1.510;2024-01-10T09:14:19;9.10;;;4.40;;
83055;SDS011;72881;43.514;1.510;2024-01-10T09:16:45;11.38;;;4.65;;
83055;SDS011;72881;43.514;1.510;2024-01-10T09:19:11;6.97;;;4.57;;
83055;SDS011;72881;43.514;1.510;2024-01-10T09:21:36;8.48;;;4.72;;
83055;SDS011;72881;43.514;1.510;2024-01-10T09:24:02;8.10;;;4.45;;
83055;SDS011;72881;43.514;1.510;2024-01-10T09:26:33;8.02;;;4.75;;
83055;SDS011;72881;43.514;1.510;2024-01-10T09:28:58;10.18;;;4.68;;
83055;SDS011;72881;43.514;1.510;2024-01-10T09:31:24;9.00;;;4.90;;
83055;SDS011;72881;43.514;1.510;2024-01-10T09:33:49;9.40;;;4.47;;
83055;SDS011;72881;43.514;1.510;2024-01-10T09:36:14;8.02;;;4.78;;
83055;SDS011;72881;43.514;1.510;2024-01-10T09:38:40;7.82;;;4.55;;
83055;SDS011;72881;43.514;1.510;2024-01-10T09:41:05;7.68;;;4.35;;
83055;SDS011;72881;43.514;1.510;2024-01-10T09:43:31;7.18;;;4.22;;
83055;SDS011;72881;43.514;1.510;2024-01-10T09:45:58;7.95;;;4.35;;
83055;SDS011;72881;43.514;1.510;2024-01-10T09:48:25;6.78;;;4.30;;
83055;SDS011;72881;43.514;1.510;2024-01-10T09:50:51;6.10;;;4.30;;
83055;SDS011;72881;43.514;1.510;2024-01-10T09:53:23;6.22;;;4.00;;
83055;SDS011;72881;43.514;1.510;2024-01-10T09:55:50;7.18;;;4.30;;
83055;SDS011;72881;43.514;1.510;2024-01-10T09:58:15;7.05;;;4.30;;
83055;SDS011;72881;43.514;1.510;2024-01-10T10:00:41;8.60;;;4.15;;
83055;SDS011;72881;43.514;1.510;2024-01-10T10:03:07;7.35;;;4.10;;
83055;SDS011;72881;43.514;1.510;2024-01-10T10:05:33;7.00;;;4.50;;
83055;SDS011;72881;43.514;1.510;2024-01-10T10:07:59;7.95;;;4.07;;
83055;SDS011;72881;43.514;1.510;2024-01-10T10:10:24;6.28;;;3.90;;
83055;SDS011;72881;43.514;1.510;2024-01-10T10:12:50;6.97;;;4.03;;
83055;SDS011;72881;43.514;1.510;2024-01-10T10:15:18;6.13;;;3.80;;
83055;SDS011;72881;43.514;1.510;2024-01-10T10:17:47;5.50;;;3.60;;
83055;SDS011;72881;43.514;1.510;2024-01-10T10:20:34;5.25;;;3.63;;
83055;SDS011;72881;43.514;1.510;2024-01-10T10:23:08;5.70;;;3.67;;
83055;SDS011;72881;43.514;1.510;2024-01-10T10:25:42;5.57;;;3.60;;
83055;SDS011;72881;43.514;1.510;2024-01-10T10:28:08;5.60;;;3.38;;
83055;SDS011;72881;43.514;1.510;2024-01-10T10:30:34;5.53;;;3.28;;
83055;SDS011;72881;43.514;1.510;2024-01-10T10:33:00;5.30;;;3.50;;
83055;SDS011;72881;43.514;1.510;2024-01-10T10:35:28;5.03;;;3.38;;
83055;SDS011;72881;43.514;1.510;2024-01-10T10:37:57;5.32;;;3.40;;
83055;SDS011;72881;43.514;1.510;2024-01-10T10:40:23;4.88;;;3.38;;
83055;SDS011;72881;43.514;1.510;2024-01-10T10:42:49;5.28;;;3.50;;
83055;SDS011;72881;43.514;1.510;2024-01-10T10:45:20;5.28;;;3.33;;
83055;SDS011;72881;43.514;1.510;2024-01-10T10:47:50;5.68;;;3.28;;
83055;SDS011;72881;43.514;1.510;2024-01-10T10:50:22;4.60;;;3.28;;
83055;SDS011;72881;43.514;1.510;2024-01-10T10:52:48;5.82;;;3.33;;
83055;SDS011;72881;43.514;1.510;2024-01-10T10:55:15;5.05;;;3.10;;
83055;SDS011;72881;43.514;1.510;2024-01-10T10:57:44;4.53;;;2.97;;
83055;SDS011;72881;43.514;1.510;2024-01-10T11:00:14;5.07;;;3.38;;
83055;SDS011;72881;43.514;1.510;2024-01-10T11:02:40;6.47;;;3.40;;
83055;SDS011;72881;43.514;1.510;2024-01-10T11:05:07;4.43;;;3.00;;
83055;SDS011;72881;43.514;1.510;2024-01-10T11:07:37;4.82;;;3.50;;
83055;SDS011;72881;43.514;1.510;2024-01-10T11:10:04;4.93;;;3.13;;
83055;SDS011;72881;43.514;1.510;2024-01-10T11:15:15;4.68;;;3.00;;
83055;SDS011;72881;43.514;1.510;2024-01-10T11:18:06;4.18;;;2.78;;
83055;SDS011;72881;43.514;1.510;2024-01-10T11:23:38;3.70;;;2.60;;
83055;SDS011;72881;43.514;1.510;2024-01-10T11:26:07;4.53;;;2.78;;
83055;SDS011;72881;43.514;1.510;2024-01-10T11:28:33;5.10;;;3.22;;
83055;SDS011;72881;43.514;1.510;2024-01-10T11:30:58;4.22;;;2.78;;
83055;SDS011;72881;43.514;1.510;2024-01-10T11:33:25;4.28;;;2.70;;
83055;SDS011;72881;43.514;1.510;2024-01-10T11:46:35;4.30;;;2.40;;
83055;SDS011;72881;43.514;1.510;2024-01-10T11:49:00;4.40;;;2.70;;
83055;SDS011;72881;43.514;1.510;2024-01-10T11:51:26;4.07;;;2.83;;
83055;SDS011;72881;43.514;1.510;2024-01-10T11:53:52;3.53;;;2.42;;
83055;SDS011;72881;43.514;1.510;2024-01-10T11:56:18;3.83;;;2.58;;
83055;SDS011;72881;43.514;1.510;2024-01-10T11:59:02;3.63;;;2.30;;
83055;SDS011;72881;43.514;1.510;2024-01-10T12:01:29;3.83;;;2.50;;
83055;SDS011;72881;43.514;1.510;2024-01-10T12:03:55;4.38;;;2.60;;
83055;SDS011;72881;43.514;1.510;2024-01-10T12:06:21;4.72;;;2.50;;
83055;SDS011;72881;43.514;1.510;2024-01-10T12:08:47;3.42;;;2.42;;
83055;SDS011;72881;43.514;1.510;2024-01-10T12:11:14;4.57;;;2.40;;
83055;SDS011;72881;43.514;1.510;2024-01-10T12:13:40;4.63;;;2.65;;
83055;SDS011;72881;43.514;1.510;2024-01-10T12:16:06;4.15;;;2.78;;
83055;SDS011;72881;43.514;1.510;2024-01-10T12:18:32;3.58;;;2.92;;
83055;SDS011;72881;43.514;1.510;2024-01-10T12:20:59;4.32;;;2.65;;
83055;SDS011;72881;43.514;1.510;2024-01-10T12:23:26;4.20;;;3.08;;
83055;SDS011;72881;43.514;1.510;2024-01-10T12:26:04;4.28;;;3.00;;
83055;SDS011;72881;43.514;1.510;2024-01-10T12:28:40;4.20;;;2.97;;
83055;SDS011;72881;43.514;1.510;2024-01-10T12:31:08;4.22;;;2.92;;
83055;SDS011;72881;43.514;1.510;2024-01-10T12:33:37;4.65;;;3.10;;
83055;SDS011;72881;43.514;1.510;2024-01-10T12:36:06;4.45;;;2.95;;
83055;SDS011;72881;43.514;1.510;2024-01-10T12:38:33;4.82;;;3.33;;
83055;SDS011;72881;43.514;1.510;2024-01-10T12:40:58;5.65;;;3.33;;
83055;SDS011;72881;43.514;1.510;2024-01-10T12:43:25;5.25;;;3.28;;
83055;SDS011;72881;43.514;1.510;2024-01-10T12:48:36;5.00;;;3.28;;
83055;SDS011;72881;43.514;1.510;2024-01-10T12:51:05;5.72;;;3.38;;
83055;SDS011;72881;43.514;1.510;2024-01-10T12:53:33;5.15;;;3.20;;
83055;SDS011;72881;43.514;1.510;2024-01-10T12:56:00;5.20;;;3.42;;
83055;SDS011;72881;43.514;1.510;2024-01-10T12:58:25;4.97;;;3.10;;
83055;SDS011;72881;43.514;1.510;2024-01-10T13:00:51;6.13;;;3.30;;
83055;SDS011;72881;43.514;1.510;2024-01-10T13:03:16;4.82;;;3.10;;
83055;SDS011;72881;43.514;1.510;2024-01-10T13:05:43;5.35;;;3.40;;
83055;SDS011;72881;43.514;1.510;2024-01-10T13:08:08;4.55;;;3.00;;
83055;SDS011;72881;43.514;1.510;2024-01-10T13:10:35;5.05;;;3.30;;
83055;SDS011;72881;43.514;1.510;2024-01-10T13:13:01;5.68;;;3.60;;
83055;SDS011;72881;43.514;1.510;2024-01-10T13:15:27;5.05;;;3.20;;
83055;SDS011;72881;43.514;1.510;2024-01-10T13:17:53;4.90;;;3.22;;
83055;SDS011;72881;43.514;1.510;2024-01-10T13:20:19;4.90;;;3.38;;
83055;SDS011;72881;43.514;1.510;2024-01-10T13:22:44;5.97;;;3.70;;
83055;SDS011;72881;43.514;1.510;2024-01-10T13:25:11;6.55;;;3.95;;
83055;SDS011;72881;43.514;1.510;2024-01-10T13:27:36;5.38;;;3.92;;
83055;SDS011;72881;43.514;1.510;2024-01-10T13:30:02;5.82;;;4.00;;
83055;SDS011;72881;43.514;1.510;2024-01-10T13:32:29;5.38;;;3.80;;
83055;SDS011;72881;43.514;1.510;2024-01-10T13:34:54;6.82;;;4.00;;
83055;SDS011;72881;43.514;1.510;2024-01-10T13:37:20;6.47;;;4.30;;
83055;SDS011;72881;43.514;1.510;2024-01-10T13:39:45;5.20;;;3.63;;
83055;SDS011;72881;43.514;1.510;2024-01-10T13:42:11;6.38;;;4.20;;
83055;SDS011;72881;43.514;1.510;2024-01-10T13:44:36;5.88;;;4.05;;
83055;SDS011;72881;43.514;1.510;2024-01-10T13:47:02;6.32;;;4.32;;
83055;SDS011;72881;43.514;1.510;2024-01-10T13:49:28;6.28;;;3.97;;
83055;SDS011;72881;43.514;1.510;2024-01-10T13:51:54;5.55;;;3.90;;
83055;SDS011;72881;43.514;1.510;2024-01-10T13:54:19;5.88;;;3.95;;
83055;SDS011;72881;43.514;1.510;2024-01-10T13:56:46;5.55;;;3.72;;
83055;SDS011;72881;43.514;1.510;2024-01-10T13:59:11;6.88;;;4.25;;
83055;SDS011;72881;43.514;1.510;2024-01-10T14:01:37;6.35;;;4.25;;
83055;SDS011;72881;43.514;1.510;2024-01-10T14:04:02;5.80;;;3.85;;
83055;SDS011;72881;43.514;1.510;2024-01-10T14:06:28;6.50;;;4.13;;
83055;SDS011;72881;43.514;1.510;2024-01-10T14:08:54;5.30;;;3.70;;
83055;SDS011;72881;43.514;1.510;2024-01-10T14:11:19;5.85;;;3.63;;
83055;SDS011;72881;43.514;1.510;2024-01-10T14:13:45;5.90;;;3.58;;
83055;SDS011;72881;43.514;1.510;2024-01-10T14:16:10;5.15;;;3.50;;
83055;SDS011;72881;43.514;1.510;2024-01-10T14:18:36;6.32;;;3.42;;
83055;SDS011;72881;43.514;1.510;2024-01-10T14:21:02;5.38;;;3.70;;
83055;SDS011;72881;43.514;1.510;2024-01-10T14:23:27;4.95;;;3.35;;
83055;SDS011;72881;43.514;1.510;2024-01-10T14:25:53;5.82;;;3.80;;
83055;SDS011;72881;43.514;1.510;2024-01-10T14:28:18;4.30;;;3.22;;
83055;SDS011;72881;43.514;1.510;2024-01-10T14:30:46;5.25;;;3.72;;
83055;SDS011;72881;43.514;1.510;2024-01-10T14:33:12;5.28;;;3.72;;
83055;SDS011;72881;43.514;1.510;2024-01-10T14:35:39;6.43;;;3.88;;
83055;SDS011;72881;43.514;1.510;2024-01-10T14:38:05;5.93;;;3.72;;
83055;SDS011;72881;43.514;1.510;2024-01-10T14:40:31;5.43;;;3.38;;
83055;SDS011;72881;43.514;1.510;2024-01-10T14:42:57;5.25;;;3.33;;
83055;SDS011;72881;43.514;1.510;2024-01-10T14:45:23;4.47;;;3.33;;
83055;SDS011;72881;43.514;1.510;2024-01-10T14:47:49;4.75;;;3.30;;
83055;SDS011;72881;43.514;1.510;2024-01-10T14:50:15;5.38;;;3.40;;
83055;SDS011;72881;43.514;1.510;2024-01-10T14:52:41;5.30;;;3.65;;
83055;SDS011;72881;43.514;1.510;2024-01-10T14:55:07;5.20;;;3.50;;
83055;SDS011;72881;43.514;1.510;2024-01-10T14:57:33;6.07;;;3.50;;